createdAt,value
2023-03-07T00:00:26.635Z,99333.84
2023-03-07T00:02:54.494Z,99332.81
2023-03-07T00:05:22.309Z,99329.16
2023-03-07T00:07:50.054Z,99333.59
2023-03-07T00:10:18.154Z,99330.09
2023-03-07T00:12:45.994Z,99329.22
2023-03-07T00:15:13.968Z,99323.06
2023-03-07T00:17:42.191Z,99312.41
2023-03-07T00:20:14.151Z,99314.19
2023-03-07T00:22:44.105Z,99313.16
2023-03-07T00:25:11.808Z,99308.81
2023-03-07T00:27:40.118Z,99308.91
2023-03-07T00:30:10.033Z,99305.44
2023-03-07T00:32:38.554Z,99314.34
2023-03-07T00:35:07.053Z,99293.28
2023-03-07T00:37:34.912Z,99303.88
2023-03-07T00:40:02.687Z,99308.09
2023-03-07T00:42:30.432Z,99295.03
2023-03-07T00:44:58.133Z,99308.19
2023-03-07T00:47:25.848Z,99306.59
2023-03-07T00:49:54.243Z,99298.75
2023-03-07T00:52:22.168Z,99300.38
2023-03-07T00:54:50.151Z,99294.94
2023-03-07T00:57:18.056Z,99292.38
2023-03-07T00:59:46.884Z,99283.53
2023-03-07T01:02:15.149Z,99296.66
2023-03-07T01:04:42.934Z,99280.91
2023-03-07T01:07:10.790Z,99292.31
2023-03-07T01:09:39.162Z,99284.47
2023-03-07T01:12:07.683Z,99285.22
2023-03-07T01:14:35.714Z,99274.69
2023-03-07T01:17:04.039Z,99273.88
2023-03-07T01:19:32.068Z,99272.25
2023-03-07T01:22:01.026Z,99272.44
2023-03-07T01:24:28.909Z,99275.13
2023-03-07T01:26:57.187Z,99277.06
2023-03-07T01:29:25.104Z,99278.97
2023-03-07T01:31:53.615Z,99272.06
2023-03-07T01:34:21.986Z,99273.00
2023-03-07T01:36:51.854Z,99261.47
2023-03-07T01:39:19.744Z,99265.13
2023-03-07T01:41:52.216Z,99268.44
2023-03-07T01:44:26.086Z,99264.13
2023-03-07T01:47:00.473Z,99271.28
2023-03-07T01:49:46.137Z,99264.94
2023-03-07T01:52:32.551Z,99252.38
2023-03-07T01:55:11.760Z,99258.38
2023-03-07T01:57:44.696Z,99245.13
2023-03-07T02:00:25.860Z,99255.44
2023-03-07T02:03:10.561Z,99258.03
2023-03-07T02:05:59.640Z,99252.78
2023-03-07T02:08:30.510Z,99245.00
2023-03-07T02:10:58.448Z,99246.22
2023-03-07T02:13:26.329Z,99242.97
2023-03-07T02:15:55.215Z,99231.38
2023-03-07T02:18:28.480Z,99242.13
2023-03-07T02:21:09.324Z,99238.66
2023-03-07T02:23:49.089Z,99235.41
2023-03-07T02:26:22.945Z,99238.28
2023-03-07T02:28:51.784Z,99237.53
2023-03-07T02:31:19.743Z,99242.00
2023-03-07T02:33:47.585Z,99235.94
2023-03-07T02:36:22.190Z,99239.25
2023-03-07T02:39:06.819Z,99241.91
2023-03-07T02:41:36.908Z,99231.16
2023-03-07T02:44:11.774Z,99236.25
2023-03-07T02:46:39.792Z,99229.19
2023-03-07T02:49:07.710Z,99223.13
2023-03-07T02:51:35.606Z,99223.03
2023-03-07T02:54:03.521Z,99219.59
2023-03-07T02:56:31.242Z,99219.38
2023-03-07T02:58:59.015Z,99213.19
2023-03-07T03:01:27.207Z,99210.59
2023-03-07T03:03:56.077Z,99206.16
2023-03-07T03:06:24.331Z,99210.59
2023-03-07T03:08:52.610Z,99190.53
2023-03-07T03:11:20.715Z,99199.31
2023-03-07T03:13:49.062Z,99194.03
2023-03-07T03:16:17.320Z,99194.09
2023-03-07T03:18:45.113Z,99195.09
2023-03-07T03:21:14.424Z,99192.47
2023-03-07T03:23:42.222Z,99186.25
2023-03-07T03:26:11.780Z,99183.63
2023-03-07T03:28:40.371Z,99189.69
2023-03-07T03:31:14.897Z,99179.84
2023-03-07T03:33:44.597Z,99182.34
2023-03-07T03:36:16.909Z,99177.00
2023-03-07T03:38:47.217Z,99180.50
2023-03-07T03:41:16.052Z,99175.22
2023-03-07T03:43:45.460Z,99174.09
2023-03-07T03:46:13.457Z,99175.88
2023-03-07T03:48:41.371Z,99168.72
2023-03-07T03:51:14.623Z,99178.34
2023-03-07T03:53:42.909Z,99167.84
2023-03-07T03:56:30.444Z,99171.44
2023-03-07T03:59:16.341Z,99165.31
2023-03-07T04:01:44.355Z,99162.59
2023-03-07T04:04:12.602Z,99154.59
2023-03-07T04:06:40.843Z,99157.19
2023-03-07T04:09:10.139Z,99160.69
2023-03-07T04:11:41.698Z,99158.03
2023-03-07T04:14:09.566Z,99162.31
2023-03-07T04:16:37.602Z,99162.28
2023-03-07T04:19:05.682Z,99150.88
2023-03-07T04:21:33.592Z,99146.25
2023-03-07T04:24:01.842Z,99140.06
2023-03-07T04:26:32.021Z,99143.47
2023-03-07T04:28:59.960Z,99144.22
2023-03-07T04:31:33.559Z,99144.16
2023-03-07T04:34:03.880Z,99133.47
2023-03-07T04:36:32.603Z,99125.53
2023-03-07T04:39:00.524Z,99136.09
2023-03-07T04:41:29.225Z,99132.59
2023-03-07T04:44:17.066Z,99126.47
2023-03-07T04:46:44.917Z,99125.69
2023-03-07T04:49:13.228Z,99122.00
2023-03-07T04:51:43.979Z,99122.91
2023-03-07T04:54:12.726Z,99121.09
2023-03-07T04:56:41.117Z,99106.03
2023-03-07T04:59:10.977Z,99117.34
2023-03-07T05:01:39.251Z,99120.78
2023-03-07T05:04:07.397Z,99111.13
2023-03-07T05:06:35.644Z,99104.97
2023-03-07T05:09:04.803Z,99100.66
2023-03-07T05:11:32.761Z,99096.31
2023-03-07T05:14:00.877Z,99105.19
2023-03-07T05:16:28.712Z,99097.28
2023-03-07T05:18:56.538Z,99089.34
2023-03-07T05:21:24.319Z,99095.44
2023-03-07T05:23:52.059Z,99085.91
2023-03-07T05:26:19.950Z,99089.56
2023-03-07T05:28:49.427Z,99103.00
2023-03-07T05:31:18.570Z,99092.59
2023-03-07T05:33:47.321Z,99096.13
2023-03-07T05:36:16.263Z,99094.41
2023-03-07T05:38:44.395Z,99090.16
2023-03-07T05:41:12.971Z,99087.31
2023-03-07T05:43:41.205Z,99084.59
2023-03-07T05:46:09.285Z,99089.78
2023-03-07T05:48:37.355Z,99085.34
2023-03-07T05:51:05.985Z,99078.25
2023-03-07T05:53:33.998Z,99073.03
2023-03-07T05:56:02.437Z,99072.09
2023-03-07T05:58:31.253Z,99076.53
2023-03-07T06:01:03.714Z,99071.09
2023-03-07T06:03:32.721Z,99066.66
2023-03-07T06:06:00.626Z,99073.53
2023-03-07T06:08:28.486Z,99072.47
2023-03-07T06:10:56.570Z,99067.09
2023-03-07T06:13:26.410Z,99056.41
2023-03-07T06:15:55.621Z,99062.53
2023-03-07T06:18:25.765Z,99056.41
2023-03-07T06:21:02.307Z,99057.16
2023-03-07T06:23:36.175Z,99056.47
2023-03-07T06:26:08.513Z,99052.88
2023-03-07T06:28:36.976Z,99048.53
2023-03-07T06:31:10.737Z,99056.28
2023-03-07T06:33:39.522Z,99059.69
2023-03-07T06:36:10.081Z,99061.41
2023-03-07T06:38:41.335Z,99068.50
2023-03-07T06:41:09.339Z,99063.19
2023-03-07T06:43:37.684Z,99065.13
2023-03-07T06:46:06.523Z,99057.25
2023-03-07T06:48:38.039Z,99065.19
2023-03-07T06:51:09.835Z,99057.25
2023-03-07T06:53:41.267Z,99061.75
2023-03-07T06:56:09.558Z,99067.63
2023-03-07T06:58:38.939Z,99068.41
2023-03-07T07:01:14.899Z,99067.34
2023-03-07T07:03:42.929Z,99069.28
2023-03-07T07:06:12.336Z,99063.94
2023-03-07T07:08:40.399Z,99070.16
2023-03-07T07:11:13.463Z,99074.44
2023-03-07T07:13:41.598Z,99077.91
2023-03-07T07:16:12.746Z,99072.53
2023-03-07T07:18:42.521Z,99062.72
2023-03-07T07:21:11.986Z,99070.47
2023-03-07T07:23:40.064Z,99058.97
2023-03-07T07:26:09.195Z,99072.63
2023-03-07T07:28:37.607Z,99075.09
2023-03-07T07:31:07.388Z,99070.38
2023-03-07T07:33:36.166Z,99070.22
2023-03-07T07:36:08.921Z,99077.09
2023-03-07T07:38:37.400Z,99070.81
2023-03-07T07:41:07.099Z,99068.22
2023-03-07T07:43:35.447Z,99068.00
2023-03-07T07:46:15.903Z,99067.06
2023-03-07T07:48:48.081Z,99063.44
2023-03-07T07:51:17.199Z,99065.22
2023-03-07T07:53:45.244Z,99065.00
2023-03-07T07:56:13.573Z,99071.81
2023-03-07T07:58:41.685Z,99063.72
2023-03-07T08:01:29.994Z,99057.19
2023-03-07T08:03:59.313Z,99058.97
2023-03-07T08:06:28.419Z,99052.66
2023-03-07T08:08:59.953Z,99056.25
2023-03-07T08:11:29.506Z,99053.38
2023-03-07T08:13:58.692Z,99058.47
2023-03-07T08:16:27.949Z,99063.31
2023-03-07T08:18:59.583Z,99050.84
2023-03-07T08:21:28.045Z,99059.28
2023-03-07T08:23:56.592Z,99056.31
2023-03-07T08:26:25.483Z,99054.53
2023-03-07T08:28:53.724Z,99045.50
2023-03-07T08:31:26.615Z,99045.34
2023-03-07T08:33:56.547Z,99052.28
2023-03-07T08:36:24.561Z,99047.47
2023-03-07T08:38:52.847Z,99036.00
2023-03-07T08:41:22.983Z,99044.50
2023-03-07T08:43:51.510Z,99034.97
2023-03-07T08:46:19.796Z,99042.78
2023-03-07T08:48:49.485Z,99037.38
2023-03-07T08:51:20.733Z,99037.97
2023-03-07T08:53:50.638Z,99032.97
2023-03-07T08:56:20.611Z,99031.00
2023-03-07T08:58:48.505Z,99026.38
2023-03-07T09:01:22.985Z,99032.41
2023-03-07T09:03:51.207Z,99014.06
2023-03-07T09:06:21.421Z,99040.22
2023-03-07T09:08:50.442Z,99023.50
2023-03-07T09:11:18.990Z,99034.81
2023-03-07T09:13:52.323Z,99019.13
2023-03-07T09:16:22.332Z,99025.53
2023-03-07T09:18:51.092Z,99019.44
2023-03-07T09:21:18.965Z,99020.44
2023-03-07T09:23:46.917Z,99023.09
2023-03-07T09:26:16.595Z,99012.25
2023-03-07T09:28:44.684Z,99015.84
2023-03-07T09:31:15.008Z,99006.66
2023-03-07T09:33:46.527Z,99013.66
2023-03-07T09:36:15.448Z,99008.66
2023-03-07T09:38:48.035Z,99007.75
2023-03-07T09:41:33.749Z,99005.53
2023-03-07T09:44:34.010Z,99008.16
2023-03-07T09:47:43.223Z,99003.75
2023-03-07T09:50:29.445Z,99006.97
2023-03-07T09:53:04.451Z,98991.66
2023-03-07T09:55:58.344Z,98980.94
2023-03-07T09:58:28.408Z,98975.38
2023-03-07T10:01:24.090Z,98982.72
2023-03-07T10:04:06.350Z,98975.16
2023-03-07T10:06:42.970Z,98983.91
2023-03-07T10:09:24.716Z,98971.56
2023-03-07T10:12:30.092Z,98972.47
2023-03-07T10:15:45.894Z,98969.00
2023-03-07T10:18:45.155Z,98967.72
2023-03-07T10:21:27.990Z,98962.06
2023-03-07T10:24:20.346Z,98955.66
2023-03-07T10:26:53.812Z,98962.41
2023-03-07T10:29:28.795Z,98958.72
2023-03-07T10:32:23.312Z,98962.06
2023-03-07T10:35:02.958Z,98961.91
2023-03-07T10:37:56.896Z,98940.72
2023-03-07T10:40:41.570Z,98947.69
2023-03-07T10:43:23.635Z,98948.06
2023-03-07T10:46:02.258Z,98942.59
2023-03-07T10:48:31.623Z,98932.75
2023-03-07T10:51:41.889Z,98942.19
2023-03-07T10:54:17.086Z,98940.53
2023-03-07T10:57:10.949Z,98936.94
2023-03-07T10:59:43.678Z,98940.63
2023-03-07T11:02:38.562Z,98936.66
2023-03-07T11:05:31.336Z,98936.50
2023-03-07T11:08:01.362Z,98928.78
2023-03-07T11:10:40.164Z,98931.34
2023-03-07T11:13:17.797Z,98935.81
2023-03-07T11:15:46.840Z,98929.38
2023-03-07T11:18:39.089Z,98934.59
2023-03-07T11:21:25.825Z,98923.03
2023-03-07T11:24:18.423Z,98937.19
2023-03-07T11:26:46.244Z,98919.75
2023-03-07T11:29:14.969Z,98924.81
2023-03-07T11:32:05.923Z,98918.38
2023-03-07T11:34:59.691Z,98912.31
2023-03-07T11:37:43.619Z,98914.03
2023-03-07T11:40:20.341Z,98910.41
2023-03-07T11:43:04.582Z,98913.25
2023-03-07T11:46:35.999Z,98904.19
2023-03-07T11:49:55.240Z,98917.47
2023-03-07T11:52:26.179Z,98902.22
2023-03-07T11:55:23.128Z,98902.91
2023-03-07T11:58:38.576Z,98893.47
2023-03-07T12:01:46.529Z,98899.06
2023-03-07T12:04:50.032Z,98898.97
2023-03-07T12:07:53.686Z,98890.53
2023-03-07T12:10:47.059Z,98892.00
2023-03-07T12:13:44.898Z,98882.53
2023-03-07T12:16:34.469Z,98879.28
2023-03-07T12:19:38.576Z,98881.00
2023-03-07T12:22:29.749Z,98867.06
2023-03-07T12:25:21.893Z,98867.25
2023-03-07T12:28:17.998Z,98864.16
2023-03-07T12:31:12.797Z,98862.84
2023-03-07T12:34:34.437Z,98854.81
2023-03-07T12:37:18.241Z,98862.53
2023-03-07T12:40:01.073Z,98847.94
2023-03-07T12:42:44.768Z,98852.72
2023-03-07T12:45:27.254Z,98855.00
2023-03-07T12:48:07.601Z,98826.84
2023-03-07T12:50:52.728Z,98840.16
2023-03-07T12:53:56.522Z,98815.38
2023-03-07T12:56:53.682Z,98824.59
2023-03-07T12:59:22.724Z,98809.47
2023-03-07T13:02:29.730Z,98824.31
2023-03-07T13:05:04.443Z,98819.34
2023-03-07T13:07:35.334Z,98811.84
2023-03-07T13:10:14.456Z,98814.69
2023-03-07T13:12:42.640Z,98802.13
2023-03-07T13:15:19.482Z,98809.66
2023-03-07T13:17:48.026Z,98810.50
2023-03-07T13:20:28.181Z,98809.06
2023-03-07T13:23:10.971Z,98789.66
2023-03-07T13:25:48.523Z,98805.25
2023-03-07T13:28:33.924Z,98804.41
2023-03-07T13:31:17.152Z,98804.59
2023-03-07T13:33:45.476Z,98812.56
2023-03-07T13:36:40.612Z,98799.09
2023-03-07T13:39:38.366Z,98775.88
2023-03-07T13:42:50.355Z,98796.03
2023-03-07T13:45:40.704Z,98806.16
2023-03-07T13:48:15.835Z,98792.09
2023-03-07T13:51:08.200Z,98802.91
2023-03-07T13:53:54.405Z,98807.38
2023-03-07T13:56:32.239Z,98808.53
2023-03-07T13:59:23.508Z,98820.66
2023-03-07T14:02:07.538Z,98815.25
2023-03-07T14:04:46.286Z,98806.59
2023-03-07T14:07:33.360Z,98825.16
2023-03-07T14:10:24.838Z,98797.13
2023-03-07T14:14:11.179Z,98833.03
2023-03-07T14:17:08.728Z,98834.94
2023-03-07T14:23:56.469Z,98832.28
2023-03-07T14:26:40.186Z,98831.50
2023-03-07T14:29:30.901Z,98833.13
2023-03-07T14:32:01.279Z,98829.03
2023-03-07T14:34:35.336Z,98817.72
2023-03-07T14:37:12.687Z,98827.88
2023-03-07T14:39:58.391Z,98835.56
2023-03-07T14:43:02.290Z,98847.84
2023-03-07T14:45:57.344Z,98831.38
2023-03-07T14:48:54.173Z,98832.88
2023-03-07T14:51:29.917Z,98840.94
2023-03-07T14:54:02.005Z,98816.22
2023-03-07T14:56:35.227Z,98844.06
2023-03-07T14:59:05.574Z,98852.50
2023-03-07T15:01:39.953Z,98846.75
2023-03-07T15:04:39.029Z,98852.66
2023-03-07T15:07:21.203Z,98846.59
2023-03-07T15:09:50.059Z,98852.59
2023-03-07T15:12:28.459Z,98849.56
2023-03-07T15:15:02.356Z,98849.19
2023-03-07T15:17:45.949Z,98857.94
2023-03-07T15:20:22.564Z,98849.59
2023-03-07T15:22:55.008Z,98843.31
2023-03-07T15:25:26.519Z,98848.28
2023-03-07T15:28:04.565Z,98830.84
2023-03-07T15:30:38.515Z,98830.56
2023-03-07T15:33:32.648Z,98845.47
2023-03-07T15:36:20.186Z,98833.25
2023-03-07T15:38:51.710Z,98829.78
2023-03-07T15:41:37.614Z,98845.19
2023-03-07T15:44:11.942Z,98837.13
2023-03-07T15:46:48.869Z,98839.69
2023-03-07T15:49:26.216Z,98849.66
2023-03-07T15:52:00.270Z,98835.41
2023-03-07T15:54:41.771Z,98836.47
2023-03-07T15:57:38.723Z,98810.19
2023-03-07T16:00:39.216Z,98823.91
2023-03-07T16:03:30.726Z,98813.50
2023-03-07T16:06:47.453Z,98827.03
2023-03-07T16:09:38.752Z,98826.19
2023-03-07T16:12:22.047Z,98808.19
2023-03-07T16:15:16.632Z,98815.91
2023-03-07T16:18:08.257Z,98822.63
2023-03-07T16:20:38.964Z,98814.28
2023-03-07T16:23:13.166Z,98825.66
2023-03-07T16:25:43.146Z,98823.56
2023-03-07T16:28:15.346Z,98830.69
2023-03-07T16:30:47.419Z,98821.28
2023-03-07T16:33:17.065Z,98826.50
2023-03-07T16:35:48.052Z,98825.06
2023-03-07T16:38:16.381Z,98837.13
2023-03-07T16:40:50.428Z,98826.75
2023-03-07T16:43:34.741Z,98826.09
2023-03-07T16:46:10.925Z,98840.25
2023-03-07T16:48:39.243Z,98835.69
2023-03-07T16:51:25.751Z,98840.63
2023-03-07T16:53:57.092Z,98837.31
2023-03-07T16:56:32.882Z,98841.50
2023-03-07T16:59:03.054Z,98841.59
2023-03-07T17:01:32.573Z,98818.41
2023-03-07T17:04:03.368Z,98846.22
2023-03-07T17:06:39.099Z,98841.00
2023-03-07T17:09:14.328Z,98860.56
2023-03-07T17:11:51.805Z,98862.38
2023-03-07T17:14:21.559Z,98854.56
2023-03-07T17:16:54.127Z,98857.31
2023-03-07T17:19:29.600Z,98857.16
2023-03-07T17:22:00.578Z,98864.44
2023-03-07T17:24:31.486Z,98868.97
2023-03-07T17:27:03.939Z,98870.03
2023-03-07T17:29:46.795Z,98860.63
2023-03-07T17:32:15.634Z,98870.56
2023-03-07T17:34:45.656Z,98857.13
2023-03-07T17:37:13.894Z,98861.84
2023-03-07T17:39:42.837Z,98890.50
2023-03-07T17:42:11.931Z,98873.06
2023-03-07T17:44:40.236Z,98888.69
2023-03-07T17:47:08.810Z,98872.16
2023-03-07T17:49:39.433Z,98873.00
2023-03-07T17:52:08.634Z,98865.72
2023-03-07T17:54:40.269Z,98881.25
2023-03-07T17:57:08.875Z,98897.19
2023-03-07T17:59:37.510Z,98898.03
2023-03-07T18:02:08.817Z,98898.13
2023-03-07T18:04:40.049Z,98880.22
2023-03-07T18:07:11.896Z,98913.22
2023-03-07T18:09:40.990Z,98909.28
2023-03-07T18:12:10.668Z,98910.38
2023-03-07T18:14:39.897Z,98918.63
2023-03-07T18:17:09.089Z,98908.50
2023-03-07T18:19:39.684Z,98908.94
2023-03-07T18:22:08.408Z,98920.69
2023-03-07T18:24:37.550Z,98917.31
2023-03-07T18:27:09.035Z,98921.88
2023-03-07T18:29:37.428Z,98933.41
2023-03-07T18:32:06.702Z,98921.19
2023-03-07T18:34:35.208Z,98917.66
2023-03-07T18:37:05.503Z,98930.75
2023-03-07T18:39:35.803Z,98929.13
2023-03-07T18:42:10.129Z,98927.94
2023-03-07T18:44:49.807Z,98927.13
2023-03-07T18:47:20.542Z,98931.78
2023-03-07T18:49:52.243Z,98918.66
2023-03-07T18:52:21.664Z,98918.97
2023-03-07T18:54:50.736Z,98932.09
2023-03-07T18:57:20.565Z,98937.69
2023-03-07T18:59:51.155Z,98913.63
2023-03-07T19:02:19.369Z,98932.00
2023-03-07T19:04:47.483Z,98934.66
2023-03-07T19:07:15.676Z,98921.66
2023-03-07T19:09:47.545Z,98933.19
2023-03-07T19:12:21.520Z,98934.16
2023-03-07T19:14:51.975Z,98931.66
2023-03-07T19:17:20.196Z,98944.66
2023-03-07T19:19:53.803Z,98938.50
2023-03-07T19:22:27.060Z,98929.00
2023-03-07T19:24:56.102Z,98940.22
2023-03-07T19:27:32.582Z,98944.66
2023-03-07T19:30:01.043Z,98939.53
2023-03-07T19:32:31.121Z,98936.81
2023-03-07T19:35:01.241Z,98914.69
2023-03-07T19:37:30.581Z,98941.66
2023-03-07T19:39:59.990Z,98937.53
2023-03-07T19:42:31.306Z,98968.66
2023-03-07T19:45:00.365Z,98963.34
2023-03-07T19:47:30.647Z,98960.00
2023-03-07T19:50:00.826Z,98964.13
2023-03-07T19:52:32.502Z,98955.63
2023-03-07T19:55:02.603Z,98969.59
2023-03-07T19:57:31.405Z,98950.56
2023-03-07T20:00:02.705Z,98966.78
2023-03-07T20:02:40.168Z,98970.06
2023-03-07T20:05:11.470Z,98976.59
2023-03-07T20:07:40.101Z,98981.78
2023-03-07T20:10:12.412Z,98972.25
2023-03-07T20:12:43.409Z,98983.72
2023-03-07T20:15:14.879Z,98983.78
2023-03-07T20:17:43.545Z,98987.16
2023-03-07T20:20:12.906Z,98995.78
2023-03-07T20:22:43.047Z,98982.47
2023-03-07T20:25:13.935Z,98971.25
2023-03-07T20:27:43.646Z,98965.31
2023-03-07T20:30:12.607Z,98978.88
2023-03-07T20:32:43.099Z,98984.03
2023-03-07T20:35:12.666Z,98988.63
2023-03-07T20:37:44.853Z,98992.06
2023-03-07T20:40:19.832Z,98967.78
2023-03-07T20:42:54.840Z,98989.50
2023-03-07T20:45:29.896Z,98955.78
2023-03-07T20:48:18.864Z,98983.94
2023-03-07T20:50:47.841Z,98993.13
2023-03-07T20:53:22.930Z,99002.63
2023-03-07T20:55:51.464Z,99007.03
2023-03-07T20:58:19.668Z,99012.50
2023-03-07T21:00:54.496Z,99001.59
2023-03-07T21:03:24.188Z,99016.16
2023-03-07T21:09:09.205Z,99023.50
2023-03-07T21:11:56.367Z,99020.41
2023-03-07T21:14:31.031Z,99010.25
2023-03-07T21:17:15.751Z,99019.53
2023-03-07T21:19:57.129Z,99028.97
2023-03-07T21:22:44.663Z,99006.75
2023-03-07T21:25:32.637Z,99008.59
2023-03-07T21:28:17.206Z,99019.81
2023-03-07T21:31:25.810Z,99017.13
2023-03-07T21:34:07.355Z,99025.44
2023-03-07T21:36:59.350Z,99015.06
2023-03-07T21:39:32.772Z,99018.75
2023-03-07T21:42:08.982Z,99014.44
2023-03-07T21:46:18.053Z,99038.63
2023-03-07T21:49:40.308Z,99013.38
2023-03-07T21:51:57.409Z,99031.50
2023-03-07T21:54:34.782Z,99039.97
2023-03-07T21:57:25.365Z,99036.41
2023-03-07T21:59:53.643Z,99032.13
2023-03-07T22:02:35.501Z,99030.25
2023-03-07T22:05:11.763Z,99031.28
2023-03-07T22:08:29.911Z,99040.59
2023-03-07T22:10:35.862Z,99024.03
2023-03-07T22:13:06.724Z,99018.78
2023-03-07T22:15:41.343Z,99031.78
2023-03-07T22:18:10.078Z,99015.38
2023-03-07T22:20:40.836Z,99047.69
2023-03-07T22:23:15.697Z,99045.03
2023-03-07T22:25:44.912Z,99027.78
2023-03-07T22:28:17.226Z,99046.03
2023-03-07T22:30:57.382Z,99002.16
2023-03-07T22:33:42.150Z,99043.59
2023-03-07T22:36:17.856Z,99023.69
2023-03-07T22:38:56.849Z,99029.72
2023-03-07T22:41:26.147Z,99039.38
2023-03-07T22:43:58.544Z,99054.94
2023-03-07T22:46:26.637Z,99033.38
2023-03-07T22:48:58.255Z,99062.72
2023-03-07T22:51:30.068Z,99052.31
2023-03-07T22:53:59.313Z,99048.34
2023-03-07T22:56:31.276Z,99055.06
2023-03-07T22:59:01.776Z,99063.66
2023-03-07T23:01:38.453Z,99043.91
2023-03-07T23:04:11.240Z,99065.38
2023-03-07T23:06:57.366Z,99047.91
2023-03-07T23:09:28.258Z,99062.25
2023-03-07T23:12:11.064Z,99069.13
2023-03-07T23:14:43.705Z,99067.16
2023-03-07T23:17:31.398Z,99046.38
2023-03-07T23:20:12.973Z,99054.84
2023-03-07T23:22:51.941Z,99046.03
2023-03-07T23:25:20.577Z,99034.06
2023-03-07T23:27:58.804Z,99057.34
2023-03-07T23:30:36.222Z,99064.22
2023-03-07T23:33:06.934Z,99068.66
2023-03-07T23:39:41.999Z,99026.09
2023-03-07T23:42:29.794Z,99064.03
2023-03-07T23:45:01.006Z,99051.81
2023-03-07T23:47:33.671Z,99077.56
2023-03-07T23:50:01.802Z,99069.78
2023-03-07T23:52:30.466Z,99064.41
2023-03-07T23:55:01.371Z,99055.94
2023-03-07T23:57:31.006Z,99061.13
2023-03-07T23:59:59.770Z,99054.50
